DLH4301 EDDN-ESSA
Flight info
| Callsign | DLH4301 |
|---|---|
| Flight time | N/A |
| Altitude | 39000 |
| Route | RODIS1G/28 RODIS L604 RUDNO L132 AGNAV DCT SUPIL DCT KILNU DCT UNRIG DCT BODLA L132 DEMUR N746 GORPI DCT ARMOD Z228 NILUG NILUG2P |
| Aircraft | A20N/M-SDE2E3FGHIRWXY/LB1 |
Departure
| Time | 2026-05-04 19:49 |
|---|---|
| Airport | Nuremberg Airport (EDDN) |
Arrival
| Time | N/A |
|---|---|
| Airport | Stockholm-Arlanda Airport (ESSA) |
| Time | Latitude | Longitude | Altitude | Speed | Heading |
|---|---|---|---|---|---|
| 2026-05-04 19:19 | 49.49547 | 11.07456 | 1027 ft | 0 kts | 188° |
| 2026-05-04 19:39 | 49.49555 | 11.07457 | 1027 ft | 2 kts | 188° |
| 2026-05-04 19:39 | 49.49567 | 11.07460 | 1027 ft | 2 kts | 188° |
| 2026-05-04 19:39 | 49.49580 | 11.07463 | 1027 ft | 3 kts | 188° |
| 2026-05-04 19:40 | 49.49601 | 11.07466 | 1027 ft | 3 kts | 165° |
| 2026-05-04 19:40 | 49.49616 | 11.07453 | 1024 ft | 1 kts | 111° |
| 2026-05-04 19:40 | 49.49617 | 11.07447 | 1025 ft | 0 kts | 98° |
| 2026-05-04 19:42 | 49.49616 | 11.07463 | 1028 ft | 4 kts | 97° |
| 2026-05-04 19:42 | 49.49611 | 11.07517 | 1028 ft | 7 kts | 98° |
| 2026-05-04 19:42 | 49.49599 | 11.07618 | 1027 ft | 11 kts | 99° |
| 2026-05-04 19:42 | 49.49587 | 11.07746 | 1025 ft | 8 kts | 98° |
| 2026-05-04 19:43 | 49.49587 | 11.07753 | 1025 ft | 0 kts | 92° |
| 2026-05-04 19:43 | 49.49590 | 11.07756 | 1026 ft | 1 kts | 50° |
| 2026-05-04 19:43 | 49.49601 | 11.07760 | 1028 ft | 4 kts | 18° |
| 2026-05-04 19:43 | 49.49632 | 11.07771 | 1030 ft | 5 kts | 10° |
| 2026-05-04 19:44 | 49.49633 | 11.07772 | 1030 ft | 0 kts | 10° |
| 2026-05-04 19:45 | 49.49634 | 11.07774 | 1030 ft | 2 kts | 28° |
| 2026-05-04 19:45 | 49.49629 | 11.07794 | 1030 ft | 2 kts | 138° |
| 2026-05-04 19:45 | 49.49581 | 11.07862 | 1030 ft | 13 kts | 111° |
| 2026-05-04 19:45 | 49.49562 | 11.08010 | 1030 ft | 17 kts | 98° |
| 2026-05-04 19:46 | 49.49544 | 11.08222 | 1028 ft | 22 kts | 101° |
| 2026-05-04 19:46 | 49.49572 | 11.08370 | 1032 ft | 10 kts | 6° |
| 2026-05-04 19:46 | 49.49610 | 11.08483 | 1032 ft | 16 kts | 93° |
| 2026-05-04 19:46 | 49.49590 | 11.08680 | 1034 ft | 22 kts | 98° |
| 2026-05-04 19:47 | 49.49568 | 11.08919 | 1037 ft | 23 kts | 98° |
| 2026-05-04 19:47 | 49.49545 | 11.09168 | 1038 ft | 24 kts | 98° |
| 2026-05-04 19:47 | 49.49550 | 11.09396 | 1042 ft | 21 kts | 58° |
| 2026-05-04 19:47 | 49.49642 | 11.09560 | 1044 ft | 19 kts | 18° |
| 2026-05-04 19:48 | 49.49708 | 11.09448 | 1042 ft | 16 kts | 281° |
| 2026-05-04 19:48 | 49.49712 | 11.09420 | 1042 ft | 0 kts | 280° |
| 2026-05-04 19:48 | 49.49735 | 11.09182 | 1041 ft | 63 kts | 278° |
| 2026-05-04 19:49 | 49.49842 | 11.08100 | 1027 ft | 137 kts | 278° |
| 2026-05-04 19:49 | 49.49951 | 11.07016 | 1118 ft | 166 kts | 279° |
| 2026-05-04 19:49 | 49.50103 | 11.05166 | 1618 ft | 183 kts | 279° |
| 2026-05-04 19:49 | 49.50281 | 11.03114 | 2114 ft | 202 kts | 280° |
| 2026-05-04 19:50 | 49.50484 | 11.00877 | 2687 ft | 219 kts | 281° |
| 2026-05-04 19:50 | 49.50737 | 10.98467 | 3287 ft | 240 kts | 281° |
| 2026-05-04 19:50 | 49.51152 | 10.95881 | 3805 ft | 261 kts | 296° |
| 2026-05-04 19:50 | 49.52302 | 10.93676 | 4491 ft | 272 kts | 325° |
| 2026-05-04 19:51 | 49.53951 | 10.92556 | 5327 ft | 275 kts | 351° |
| 2026-05-04 19:51 | 49.55899 | 10.92445 | 6224 ft | 281 kts | 2° |
| 2026-05-04 19:51 | 49.57868 | 10.92537 | 7067 ft | 286 kts | 2° |
| 2026-05-04 19:51 | 49.59860 | 10.92832 | 7924 ft | 292 kts | 16° |
| 2026-05-04 19:52 | 49.61660 | 10.94272 | 8737 ft | 298 kts | 41° |
| 2026-05-04 19:52 | 49.63205 | 10.96456 | 9548 ft | 305 kts | 44° |
| 2026-05-04 19:52 | 49.64760 | 10.98730 | 10291 ft | 314 kts | 44° |
| 2026-05-04 19:52 | 49.66399 | 11.01135 | 10623 ft | 338 kts | 44° |
| 2026-05-04 19:53 | 49.68140 | 11.03688 | 10962 ft | 357 kts | 44° |
| 2026-05-04 19:53 | 49.69954 | 11.06345 | 11683 ft | 362 kts | 44° |
| 2026-05-04 19:53 | 49.71785 | 11.09026 | 12449 ft | 360 kts | 44° |
| 2026-05-04 19:53 | 49.73471 | 11.11496 | 12630 ft | 367 kts | 44° |
| 2026-05-04 19:54 | 49.75318 | 11.14206 | 13250 ft | 373 kts | 44° |
| 2026-05-04 19:54 | 49.77204 | 11.16972 | 14032 ft | 376 kts | 44° |
| 2026-05-04 19:54 | 49.79106 | 11.19769 | 14726 ft | 379 kts | 44° |
| 2026-05-04 19:54 | 49.81018 | 11.22597 | 15416 ft | 383 kts | 44° |
| 2026-05-04 19:55 | 49.82940 | 11.25452 | 16094 ft | 387 kts | 44° |
| 2026-05-04 19:55 | 49.84888 | 11.28358 | 16771 ft | 390 kts | 44° |
| 2026-05-04 19:55 | 49.86905 | 11.31170 | 17421 ft | 394 kts | 34° |
| 2026-05-04 19:55 | 49.89287 | 11.33276 | 18063 ft | 397 kts | 25° |
| 2026-05-04 19:56 | 49.91774 | 11.35117 | 18666 ft | 400 kts | 24° |
| 2026-05-04 19:56 | 49.94306 | 11.36935 | 19232 ft | 404 kts | 24° |
| 2026-05-04 19:56 | 49.96862 | 11.38795 | 19797 ft | 407 kts | 24° |
| 2026-05-04 19:56 | 49.99422 | 11.40697 | 20347 ft | 411 kts | 25° |
| 2026-05-04 19:57 | 50.02010 | 11.42647 | 20905 ft | 415 kts | 25° |
| 2026-05-04 19:57 | 50.04608 | 11.44619 | 21434 ft | 419 kts | 25° |
| 2026-05-04 19:57 | 50.07234 | 11.46621 | 21981 ft | 423 kts | 25° |
| 2026-05-04 19:57 | 50.09879 | 11.48640 | 22511 ft | 427 kts | 25° |
| 2026-05-04 19:58 | 50.12564 | 11.50694 | 23039 ft | 431 kts | 25° |
| 2026-05-04 19:58 | 50.15260 | 11.52757 | 23571 ft | 434 kts | 25° |
| 2026-05-04 19:58 | 50.17977 | 11.54840 | 24046 ft | 436 kts | 25° |
| 2026-05-04 19:58 | 50.20705 | 11.56935 | 24515 ft | 439 kts | 25° |
| 2026-05-04 19:59 | 50.23450 | 11.59046 | 24969 ft | 441 kts | 25° |
| 2026-05-04 19:59 | 50.26205 | 11.61167 | 25432 ft | 444 kts | 25° |
| 2026-05-04 19:59 | 50.28979 | 11.63306 | 25877 ft | 446 kts | 25° |
| 2026-05-04 19:59 | 50.31753 | 11.65449 | 26309 ft | 448 kts | 24° |
| 2026-05-04 20:00 | 50.34545 | 11.67608 | 26716 ft | 451 kts | 24° |
| 2026-05-04 20:00 | 50.37354 | 11.69782 | 27091 ft | 454 kts | 24° |
| 2026-05-04 20:00 | 50.40187 | 11.71978 | 27478 ft | 456 kts | 24° |
| 2026-05-04 20:00 | 50.43033 | 11.74187 | 27958 ft | 456 kts | 24° |
| 2026-05-04 20:01 | 50.45842 | 11.76372 | 28482 ft | 454 kts | 24° |
| 2026-05-04 20:01 | 50.48665 | 11.78571 | 29024 ft | 452 kts | 24° |
| 2026-05-04 20:01 | 50.51472 | 11.80760 | 29577 ft | 450 kts | 24° |
| 2026-05-04 20:01 | 50.54263 | 11.82939 | 30122 ft | 448 kts | 24° |
| 2026-05-04 20:02 | 50.57041 | 11.85111 | 30600 ft | 445 kts | 24° |
| 2026-05-04 20:02 | 50.59796 | 11.87266 | 31090 ft | 442 kts | 24° |
| 2026-05-04 20:02 | 50.62532 | 11.89409 | 31588 ft | 438 kts | 24° |
| 2026-05-04 20:02 | 50.65245 | 11.91536 | 32105 ft | 434 kts | 24° |
| 2026-05-04 20:03 | 50.67895 | 11.93617 | 32613 ft | 429 kts | 24° |
| 2026-05-04 20:03 | 50.70527 | 11.95686 | 33138 ft | 424 kts | 24° |
| 2026-05-04 20:03 | 50.73113 | 11.97722 | 33685 ft | 418 kts | 24° |
| 2026-05-04 20:03 | 50.75691 | 11.99756 | 34192 ft | 412 kts | 24° |
| 2026-05-04 20:04 | 50.78222 | 12.01755 | 34653 ft | 405 kts | 24° |
| 2026-05-04 20:04 | 50.80732 | 12.03739 | 34888 ft | 405 kts | 24° |
| 2026-05-04 20:04 | 50.83252 | 12.05731 | 35021 ft | 406 kts | 24° |
| 2026-05-04 20:04 | 50.85786 | 12.07736 | 35170 ft | 408 kts | 24° |
| 2026-05-04 20:05 | 50.88322 | 12.09747 | 35328 ft | 409 kts | 24° |
| 2026-05-04 20:05 | 50.90864 | 12.11766 | 35463 ft | 411 kts | 24° |
| 2026-05-04 20:05 | 50.93409 | 12.13790 | 35602 ft | 412 kts | 24° |
| 2026-05-04 20:05 | 50.95974 | 12.15834 | 35743 ft | 414 kts | 24° |
| 2026-05-04 20:06 | 50.98549 | 12.17888 | 35873 ft | 415 kts | 24° |
| 2026-05-04 20:06 | 51.01145 | 12.19960 | 36027 ft | 416 kts | 24° |
| 2026-05-04 20:06 | 51.03727 | 12.22024 | 36158 ft | 417 kts | 24° |
| 2026-05-04 20:06 | 51.06324 | 12.24102 | 36276 ft | 418 kts | 24° |
| 2026-05-04 20:07 | 51.08922 | 12.26184 | 36420 ft | 419 kts | 24° |
| 2026-05-04 20:07 | 51.11527 | 12.28275 | 36543 ft | 420 kts | 24° |
| 2026-05-04 20:07 | 51.14133 | 12.30368 | 36668 ft | 421 kts | 24° |
| 2026-05-04 20:07 | 51.16740 | 12.32465 | 36794 ft | 422 kts | 24° |
| 2026-05-04 20:08 | 51.19364 | 12.34580 | 36901 ft | 424 kts | 24° |
| 2026-05-04 20:08 | 51.21968 | 12.36680 | 37018 ft | 425 kts | 24° |
| 2026-05-04 20:08 | 51.24627 | 12.38827 | 37134 ft | 425 kts | 24° |
| 2026-05-04 20:08 | 51.27259 | 12.40955 | 37242 ft | 426 kts | 24° |
| 2026-05-04 20:09 | 51.29912 | 12.43103 | 37291 ft | 429 kts | 24° |
| 2026-05-04 20:09 | 51.35195 | 12.47389 | 37564 ft | 430 kts | 24° |
| 2026-05-04 20:09 | 51.37891 | 12.49581 | 37702 ft | 430 kts | 24° |
| 2026-05-04 20:10 | 51.40529 | 12.51729 | 37793 ft | 431 kts | 24° |
| 2026-05-04 20:10 | 51.43202 | 12.53908 | 37901 ft | 432 kts | 24° |
| 2026-05-04 20:10 | 51.45880 | 12.56092 | 37994 ft | 433 kts | 24° |
| 2026-05-04 20:11 | 51.51254 | 12.60485 | 38098 ft | 436 kts | 24° |
| 2026-05-04 20:11 | 51.56678 | 12.64931 | 38167 ft | 440 kts | 24° |
| 2026-05-04 20:12 | 51.62163 | 12.69441 | 38247 ft | 445 kts | 24° |
| 2026-05-04 20:12 | 51.67693 | 12.74000 | 38318 ft | 449 kts | 24° |
| 2026-05-04 20:13 | 51.73286 | 12.78624 | 38393 ft | 454 kts | 24° |
| 2026-05-04 20:13 | 51.78920 | 12.83294 | 38464 ft | 458 kts | 24° |
| 2026-05-04 20:14 | 51.84571 | 12.87992 | 38550 ft | 462 kts | 24° |
| 2026-05-04 20:14 | 51.90297 | 12.92767 | 38637 ft | 466 kts | 24° |
| 2026-05-04 20:15 | 51.96049 | 12.97577 | 38820 ft | 466 kts | 24° |
| 2026-05-04 20:15 | 52.01802 | 13.02402 | 38948 ft | 466 kts | 24° |
| 2026-05-04 20:16 | 52.07548 | 13.07236 | 38951 ft | 465 kts | 24° |
| 2026-05-04 20:16 | 52.13289 | 13.12077 | 38948 ft | 465 kts | 24° |
| 2026-05-04 20:17 | 52.19025 | 13.16929 | 38957 ft | 465 kts | 24° |